createdAt,value
2018-09-22T00:00:25.527Z,89.54
2018-09-22T00:02:55.591Z,89.78
2018-09-22T00:05:25.913Z,89.56
2018-09-22T00:07:56.448Z,88.98
2018-09-22T00:10:27.129Z,89.77
2018-09-22T00:13:01.492Z,89.43
2018-09-22T00:15:32.285Z,90.80
2018-09-22T00:18:02.507Z,90.47
2018-09-22T00:20:34.956Z,90.64
2018-09-22T00:23:05.239Z,91.24
2018-09-22T00:25:35.513Z,90.88
2018-09-22T00:28:07.422Z,91.02
2018-09-22T00:30:37.820Z,90.26
2018-09-22T00:33:08.761Z,91.86
2018-09-22T00:35:39.368Z,91.01
2018-09-22T00:38:11.906Z,91.02
2018-09-22T00:40:42.805Z,91.52
2018-09-22T00:43:13.473Z,91.38
2018-09-22T00:45:45.429Z,92.09
2018-09-22T00:48:17.735Z,91.37
2018-09-22T00:50:49.569Z,92.77
2018-09-22T00:53:20.296Z,92.45
2018-09-22T00:55:50.798Z,92.99
2018-09-22T00:58:22.932Z,93.89
2018-09-22T01:00:54.322Z,93.17
2018-09-22T01:03:27.884Z,93.29
2018-09-22T01:05:58.567Z,93.29
2018-09-22T01:08:28.789Z,93.55
2018-09-22T01:11:00.735Z,93.48
2018-09-22T01:13:32.613Z,93.69
2018-09-22T01:16:03.713Z,94.14
2018-09-22T01:18:33.810Z,94.71
2018-09-22T01:21:04.353Z,94.48
2018-09-22T01:23:35.290Z,94.33
2018-09-22T01:26:08.690Z,94.16
2018-09-22T01:28:39.785Z,95.41
2018-09-22T01:31:09.934Z,94.72
2018-09-22T01:33:40.146Z,94.73
2018-09-22T01:36:10.375Z,94.84
2018-09-22T01:38:41.297Z,94.55
2018-09-22T01:41:12.728Z,94.33
2018-09-22T01:43:43.705Z,95.13
2018-09-22T01:46:15.700Z,94.87
2018-09-22T01:48:45.997Z,94.89
2018-09-22T01:51:18.668Z,95.09
2018-09-22T01:53:48.758Z,95.13
2018-09-22T01:56:18.881Z,94.79
2018-09-22T01:58:49.923Z,94.84
2018-09-22T02:01:21.870Z,94.80
2018-09-22T02:03:51.903Z,95.01
2018-09-22T02:06:22.325Z,94.72
2018-09-22T02:08:53.846Z,94.21
2018-09-22T02:11:23.888Z,94.66
2018-09-22T02:13:54.528Z,95.21
2018-09-22T02:16:24.891Z,95.44
2018-09-22T02:18:57.366Z,95.23
2018-09-22T02:21:27.593Z,95.61
2018-09-22T02:23:58.442Z,95.11
2018-09-22T02:26:28.795Z,95.34
2018-09-22T02:29:01.200Z,95.33
2018-09-22T02:31:31.961Z,95.03
2018-09-22T02:34:02.591Z,94.52
2018-09-22T02:36:32.885Z,94.85
2018-09-22T02:39:06.186Z,94.36
2018-09-22T02:41:36.093Z,94.90
2018-09-22T02:44:06.831Z,94.58
2018-09-22T02:46:37.186Z,94.52
2018-09-22T02:49:06.982Z,95.14
2018-09-22T02:51:36.670Z,95.92
2018-09-22T02:54:06.180Z,95.64
2018-09-22T02:56:36.500Z,95.51
2018-09-22T02:59:06.995Z,96.23
2018-09-22T03:01:36.740Z,95.46
2018-09-22T03:04:07.033Z,95.78
2018-09-22T03:06:37.406Z,96.13
2018-09-22T03:09:10.167Z,96.72
2018-09-22T03:11:41.250Z,96.76
2018-09-22T03:14:11.358Z,96.25
2018-09-22T03:16:41.860Z,96.44
2018-09-22T03:19:11.895Z,96.85
2018-09-22T03:21:42.099Z,95.74
2018-09-22T03:24:15.511Z,96.65
2018-09-22T03:26:55.998Z,96.22
2018-09-22T03:29:27.847Z,96.58
2018-09-22T03:32:01.011Z,97.22
2018-09-22T03:34:50.980Z,96.89
2018-09-22T03:37:22.142Z,97.23
2018-09-22T03:39:59.239Z,96.58
2018-09-22T03:42:29.597Z,96.49
2018-09-22T03:45:03.947Z,96.57
2018-09-22T03:47:47.113Z,96.21
2018-09-22T03:50:19.138Z,96.89
2018-09-22T03:52:49.277Z,95.76
2018-09-22T03:55:19.928Z,95.50
2018-09-22T03:57:59.376Z,95.88
2018-09-22T04:00:29.720Z,95.22
2018-09-22T04:02:59.744Z,94.95
2018-09-22T04:05:30.697Z,94.57
2018-09-22T04:08:00.660Z,95.47
2018-09-22T04:10:31.763Z,95.20
2018-09-22T04:13:02.395Z,95.28
2018-09-22T04:15:32.528Z,95.50
2018-09-22T04:18:02.545Z,94.61
2018-09-22T04:20:33.287Z,94.86
2018-09-22T04:23:06.046Z,94.20
2018-09-22T04:25:38.598Z,94.18
2018-09-22T04:28:08.743Z,95.01
2018-09-22T04:30:39.035Z,95.82
2018-09-22T04:33:09.452Z,94.67
2018-09-22T04:35:41.257Z,95.03
2018-09-22T04:38:26.330Z,95.16
2018-09-22T04:44:25.345Z,94.69
2018-09-22T04:50:12.524Z,94.07
2018-09-22T04:52:43.128Z,94.04
2018-09-22T04:55:14.433Z,94.39
2018-09-22T04:57:44.686Z,94.38
2018-09-22T05:00:17.151Z,94.43
2018-09-22T05:02:47.441Z,94.25
2018-09-22T05:05:17.622Z,93.97
2018-09-22T05:07:48.559Z,94.61
2018-09-22T05:10:18.537Z,94.37
2018-09-22T05:12:49.980Z,94.71
2018-09-22T05:15:20.096Z,95.07
2018-09-22T05:17:51.753Z,94.99
2018-09-22T05:20:23.511Z,95.00
2018-09-22T05:22:53.757Z,94.42
2018-09-22T05:25:32.270Z,95.40
2018-09-22T05:28:03.247Z,94.67
2018-09-22T05:30:35.354Z,95.18
2018-09-22T05:33:07.105Z,95.51
2018-09-22T05:35:37.738Z,95.37
2018-09-22T05:38:07.991Z,94.12
2018-09-22T05:40:38.592Z,95.84
2018-09-22T05:43:09.178Z,94.99
2018-09-22T05:45:41.295Z,95.62
2018-09-22T05:48:11.493Z,95.55
2018-09-22T05:50:43.835Z,95.48
2018-09-22T05:53:14.417Z,96.02
2018-09-22T05:55:47.404Z,95.58
2018-09-22T05:58:19.071Z,95.45
2018-09-22T06:00:50.313Z,95.67
2018-09-22T06:03:20.686Z,94.64
2018-09-22T06:05:50.809Z,95.22
2018-09-22T06:08:21.196Z,94.88
2018-09-22T06:10:51.482Z,94.66
2018-09-22T06:13:21.635Z,94.85
2018-09-22T06:15:56.140Z,94.58
2018-09-22T06:18:28.312Z,94.57
2018-09-22T06:21:01.211Z,94.36
2018-09-22T06:23:33.313Z,94.08
2018-09-22T06:26:06.666Z,94.36
2018-09-22T06:28:39.724Z,94.74
2018-09-22T06:31:10.438Z,92.99
2018-09-22T06:33:42.618Z,92.51
2018-09-22T06:36:15.723Z,91.92
2018-09-22T06:38:46.234Z,92.59
2018-09-22T06:41:18.914Z,92.41
2018-09-22T06:43:49.395Z,92.20
2018-09-22T06:46:20.303Z,91.59
2018-09-22T06:49:31.915Z,91.95
2018-09-22T06:52:02.953Z,91.53
2018-09-22T06:54:33.048Z,91.61
2018-09-22T06:57:05.938Z,90.97
2018-09-22T06:59:37.772Z,90.44
2018-09-22T07:02:09.549Z,89.82
2018-09-22T07:04:40.428Z,89.08
2018-09-22T07:07:10.657Z,88.91
2018-09-22T07:09:40.861Z,88.80
2018-09-22T07:12:11.083Z,88.07
2018-09-22T07:14:41.208Z,87.39
2018-09-22T07:17:11.834Z,86.83
2018-09-22T07:19:41.698Z,86.34
2018-09-22T07:22:16.735Z,86.60
2018-09-22T07:24:47.365Z,86.05
2018-09-22T07:27:17.543Z,86.50
2018-09-22T07:29:47.708Z,86.76
2018-09-22T07:32:21.718Z,87.33
2018-09-22T07:34:51.931Z,86.20
2018-09-22T07:37:23.635Z,86.14
2018-09-22T07:39:53.703Z,85.27
2018-09-22T07:42:26.154Z,84.65
2018-09-22T07:44:55.970Z,85.61
2018-09-22T07:47:26.376Z,86.25
2018-09-22T07:49:56.378Z,84.92
2018-09-22T07:52:26.360Z,86.16
2018-09-22T07:54:56.295Z,85.34
2018-09-22T07:57:26.284Z,85.55
2018-09-22T07:59:56.943Z,86.85
2018-09-22T08:02:27.030Z,86.70
2018-09-22T08:04:57.001Z,84.26
2018-09-22T08:07:26.995Z,83.83
2018-09-22T08:09:57.055Z,83.29
2018-09-22T08:12:27.518Z,85.00
2018-09-22T08:14:57.549Z,85.35
2018-09-22T08:17:27.542Z,84.48
2018-09-22T08:19:57.712Z,83.77
2018-09-22T08:22:27.617Z,83.34
2018-09-22T08:24:58.303Z,83.31
2018-09-22T08:27:28.524Z,81.33
2018-09-22T08:29:58.687Z,81.83
2018-09-22T08:32:28.668Z,81.28
2018-09-22T08:34:59.540Z,81.85
2018-09-22T08:37:29.517Z,82.03
2018-09-22T08:40:00.150Z,83.85
2018-09-22T08:42:30.674Z,87.30
2018-09-22T08:45:00.880Z,87.79
2018-09-22T08:47:31.223Z,88.99
2018-09-22T08:50:01.768Z,89.56
2018-09-22T08:53:25.230Z,88.32
2018-09-22T08:55:59.559Z,88.78
2018-09-22T08:58:31.221Z,87.15
2018-09-22T09:01:03.460Z,87.22
2018-09-22T09:03:33.938Z,86.89
2018-09-22T09:06:05.142Z,87.67
2018-09-22T09:08:37.117Z,86.88
2018-09-22T09:11:12.736Z,87.13
2018-09-22T09:13:44.749Z,85.90
2018-09-22T09:16:17.610Z,86.17
2018-09-22T09:18:48.598Z,84.67
2018-09-22T09:21:26.345Z,85.26
2018-09-22T09:23:57.681Z,83.62
2018-09-22T09:26:28.532Z,84.30
2018-09-22T09:28:59.301Z,84.23
2018-09-22T09:31:31.025Z,83.20
2018-09-22T09:34:02.750Z,84.36
2018-09-22T09:36:33.068Z,87.94
2018-09-22T09:39:04.085Z,89.23
2018-09-22T09:41:35.389Z,89.87
2018-09-22T09:44:06.231Z,88.66
2018-09-22T09:46:36.448Z,89.74
2018-09-22T09:49:09.149Z,89.83
2018-09-22T09:51:39.579Z,90.65
2018-09-22T09:55:07.272Z,90.55
2018-09-22T09:57:38.087Z,90.80
2018-09-22T10:00:10.133Z,90.06
2018-09-22T10:02:40.957Z,90.19
2018-09-22T10:05:13.886Z,88.17
2018-09-22T10:07:44.339Z,87.55
2018-09-22T10:10:14.807Z,88.07
2018-09-22T10:12:44.996Z,89.78
2018-09-22T10:15:15.452Z,89.67
2018-09-22T10:17:46.354Z,89.71
2018-09-22T10:20:20.412Z,89.10
2018-09-22T10:22:54.607Z,88.81
2018-09-22T10:27:25.683Z,88.68
2018-09-22T10:32:40.824Z,88.61
2018-09-22T10:35:12.224Z,87.93
2018-09-22T10:37:44.981Z,88.56
2018-09-22T10:40:18.452Z,88.72
2018-09-22T10:42:51.570Z,90.07
2018-09-22T10:45:21.972Z,88.43
2018-09-22T10:47:51.977Z,88.70
2018-09-22T10:50:22.393Z,87.53
2018-09-22T10:52:52.871Z,86.00
2018-09-22T10:55:23.057Z,86.64
2018-09-22T10:57:54.736Z,85.70
2018-09-22T11:00:27.710Z,86.38
2018-09-22T11:02:59.078Z,85.04
2018-09-22T11:05:31.855Z,83.24
2018-09-22T11:08:03.933Z,83.72
2018-09-22T11:10:37.186Z,85.64
2018-09-22T11:13:08.748Z,85.24
2018-09-22T11:15:42.794Z,83.48
2018-09-22T11:18:13.389Z,83.99
2018-09-22T11:20:44.328Z,84.54
2018-09-22T11:23:16.794Z,83.02
2018-09-22T11:25:47.543Z,83.86
2018-09-22T11:28:20.670Z,81.98
2018-09-22T11:30:53.811Z,80.62
2018-09-22T11:33:24.126Z,81.15
2018-09-22T11:36:07.468Z,80.64
2018-09-22T11:38:39.234Z,80.21
2018-09-22T11:41:14.664Z,80.84
2018-09-22T11:43:46.925Z,81.01
2018-09-22T11:46:18.326Z,79.83
2018-09-22T11:48:48.815Z,79.42
2018-09-22T11:53:59.936Z,76.66
2018-09-22T11:56:30.393Z,74.46
2018-09-22T11:59:01.023Z,73.93
2018-09-22T12:01:31.173Z,72.12
2018-09-22T12:04:01.407Z,69.61
2018-09-22T12:06:31.669Z,64.16
2018-09-22T12:09:03.891Z,61.99
2018-09-22T12:11:39.757Z,60.97
2018-09-22T12:14:13.027Z,62.92
2018-09-22T12:16:43.765Z,62.62
2018-09-22T12:19:14.192Z,64.92
2018-09-22T12:21:44.973Z,67.54
2018-09-22T12:24:15.278Z,67.04
2018-09-22T12:26:46.313Z,66.30
2018-09-22T12:29:20.820Z,65.58
2018-09-22T12:31:52.340Z,65.17
2018-09-22T12:34:23.507Z,64.96
2018-09-22T12:36:54.559Z,65.34
2018-09-22T12:39:24.883Z,66.52
2018-09-22T12:41:55.222Z,68.46
2018-09-22T12:44:26.258Z,73.25
2018-09-22T12:46:56.224Z,72.94
2018-09-22T12:49:27.177Z,72.79
2018-09-22T12:52:00.523Z,72.44
2018-09-22T12:54:37.195Z,73.67
2018-09-22T12:57:08.412Z,73.04
2018-09-22T12:59:39.823Z,73.24
2018-09-22T13:02:11.148Z,72.80
2018-09-22T13:04:42.133Z,72.81
2018-09-22T13:07:12.563Z,72.75
2018-09-22T13:09:43.069Z,72.12
2018-09-22T13:12:13.402Z,69.72
2018-09-22T13:14:44.376Z,71.34
2018-09-22T13:18:45.379Z,71.38
2018-09-22T13:21:15.536Z,73.04
2018-09-22T13:23:50.145Z,71.23
2018-09-22T13:26:22.003Z,72.17
2018-09-22T13:28:53.001Z,72.49
2018-09-22T13:31:23.655Z,74.68
2018-09-22T13:33:54.211Z,75.81
2018-09-22T13:36:26.589Z,77.33
2018-09-22T13:38:58.242Z,77.79
2018-09-22T13:41:29.140Z,78.20
2018-09-22T13:44:02.054Z,78.45
2018-09-22T13:46:34.016Z,80.07
2018-09-22T13:49:05.645Z,82.04
2018-09-22T13:51:37.469Z,80.92
2018-09-22T13:54:09.692Z,80.12
2018-09-22T13:56:40.474Z,81.05
2018-09-22T13:59:11.562Z,81.61
2018-09-22T14:01:42.878Z,82.04
2018-09-22T14:06:57.973Z,82.15
2018-09-22T14:09:28.292Z,82.89
2018-09-22T14:11:59.401Z,81.53
2018-09-22T14:14:30.505Z,82.06
2018-09-22T14:17:03.211Z,82.24
2018-09-22T14:19:33.903Z,80.01
2018-09-22T14:22:06.686Z,79.38
2018-09-22T14:24:40.953Z,80.14
2018-09-22T14:27:12.825Z,80.02
2018-09-22T14:29:47.291Z,79.25
2018-09-22T14:32:18.317Z,78.46
2018-09-22T14:37:28.258Z,78.33
2018-09-22T14:39:58.642Z,78.33
2018-09-22T14:42:30.811Z,78.34
2018-09-22T14:45:01.101Z,79.52
2018-09-22T14:47:32.688Z,78.86
2018-09-22T14:50:02.996Z,80.05
2018-09-22T14:52:33.416Z,77.95
2018-09-22T14:55:03.493Z,77.02
2018-09-22T14:57:33.763Z,77.01
2018-09-22T15:00:04.085Z,76.63
2018-09-22T15:02:34.431Z,77.07
2018-09-22T15:05:04.934Z,75.72
2018-09-22T15:07:37.630Z,74.54
2018-09-22T15:10:07.841Z,74.89
2018-09-22T15:12:38.468Z,73.60
2018-09-22T15:15:09.328Z,73.19
2018-09-22T15:17:39.975Z,72.56
2018-09-22T15:20:09.890Z,72.74
2018-09-22T15:22:41.923Z,71.88
2018-09-22T15:25:13.777Z,70.26
2018-09-22T15:27:44.174Z,69.42
2018-09-22T15:30:16.307Z,69.77
2018-09-22T15:32:48.236Z,70.09
2018-09-22T15:35:18.965Z,69.36
2018-09-22T15:37:51.355Z,68.39
2018-09-22T15:40:22.043Z,68.51
2018-09-22T15:42:52.362Z,68.10
2018-09-22T15:45:23.586Z,67.63
2018-09-22T15:47:55.664Z,65.84
2018-09-22T15:50:27.111Z,63.96
2018-09-22T15:52:59.639Z,65.82
2018-09-22T15:55:30.022Z,63.12
2018-09-22T15:58:00.848Z,65.95
2018-09-22T16:00:31.331Z,66.19
2018-09-22T16:03:02.890Z,66.07
2018-09-22T16:05:33.262Z,66.49
2018-09-22T16:08:03.842Z,66.58
2018-09-22T16:10:35.480Z,66.74
2018-09-22T16:13:06.039Z,67.08
2018-09-22T16:15:37.114Z,67.36
2018-09-22T16:18:08.763Z,67.36
2018-09-22T16:20:38.685Z,67.14
2018-09-22T16:23:11.787Z,67.90
2018-09-22T16:25:42.504Z,66.84
2018-09-22T16:28:13.611Z,67.89
2018-09-22T16:30:44.965Z,68.60
2018-09-22T16:33:15.018Z,67.24
2018-09-22T16:35:45.950Z,67.42
2018-09-22T16:38:15.927Z,66.49
2018-09-22T16:40:46.789Z,66.28
2018-09-22T16:43:17.032Z,65.81
2018-09-22T16:45:48.883Z,67.35
2018-09-22T16:48:19.898Z,65.03
2018-09-22T16:50:50.033Z,65.14
2018-09-22T16:53:20.976Z,65.41
2018-09-22T16:55:51.200Z,65.05
2018-09-22T16:58:22.147Z,64.05
2018-09-22T17:00:52.700Z,64.34
2018-09-22T17:03:23.639Z,64.40
2018-09-22T17:05:54.244Z,64.83
2018-09-22T17:08:26.533Z,65.43
2018-09-22T17:11:00.646Z,63.85
2018-09-22T17:13:33.698Z,64.22
2018-09-22T17:16:04.461Z,64.51
2018-09-22T17:18:38.772Z,65.17
2018-09-22T17:21:09.773Z,64.80
2018-09-22T17:23:42.202Z,64.64
2018-09-22T17:26:12.673Z,64.79
2018-09-22T17:28:42.689Z,65.19
2018-09-22T17:31:13.114Z,65.63
2018-09-22T17:33:43.872Z,66.00
2018-09-22T17:36:14.142Z,66.63
2018-09-22T17:38:44.726Z,65.93
2018-09-22T17:41:14.890Z,66.39
2018-09-22T17:43:47.109Z,67.07
2018-09-22T17:46:19.020Z,67.52
2018-09-22T17:48:51.394Z,67.04
2018-09-22T17:51:21.971Z,67.11
2018-09-22T17:53:51.930Z,67.72
2018-09-22T17:56:23.184Z,68.04
2018-09-22T17:58:54.300Z,67.96
2018-09-22T18:01:24.866Z,68.02
2018-09-22T18:03:55.197Z,67.87
2018-09-22T18:06:25.431Z,67.55
2018-09-22T18:08:56.029Z,67.69
2018-09-22T18:11:26.203Z,68.00
2018-09-22T18:13:56.885Z,67.92
2018-09-22T18:16:28.072Z,68.35
2018-09-22T18:19:00.641Z,68.46
2018-09-22T18:21:31.545Z,69.11
2018-09-22T18:24:03.811Z,68.91
2018-09-22T18:26:36.062Z,69.23
2018-09-22T18:29:07.960Z,69.32
2018-09-22T18:31:38.361Z,69.54
2018-09-22T18:34:09.269Z,71.48
2018-09-22T18:36:42.376Z,70.67
2018-09-22T18:39:15.609Z,69.78
2018-09-22T18:41:45.922Z,69.51
2018-09-22T18:44:16.119Z,70.33
2018-09-22T18:46:46.751Z,70.98
2018-09-22T18:49:17.120Z,71.16
2018-09-22T18:51:47.189Z,72.45
2018-09-22T18:54:18.595Z,72.93
2018-09-22T18:56:49.013Z,73.19
2018-09-22T18:59:20.051Z,72.98
2018-09-22T19:01:51.042Z,73.29
2018-09-22T19:04:22.365Z,73.52
2018-09-22T19:06:52.975Z,73.79
2018-09-22T19:09:23.044Z,73.96
2018-09-22T19:11:53.851Z,74.50
2018-09-22T19:14:32.860Z,74.51
2018-09-22T19:17:13.580Z,75.09
2018-09-22T19:19:48.207Z,75.02
2018-09-22T19:22:33.643Z,75.95
2018-09-22T19:25:06.807Z,75.20
2018-09-22T19:27:44.355Z,75.86
2018-09-22T19:30:49.036Z,76.39
2018-09-22T19:33:37.271Z,76.50
2018-09-22T19:36:11.733Z,76.37
2018-09-22T19:38:52.417Z,76.71
2018-09-22T19:41:26.125Z,76.60
2018-09-22T19:44:21.144Z,76.13
2018-09-22T19:46:56.421Z,76.88
2018-09-22T19:49:33.446Z,77.09
2018-09-22T19:52:07.484Z,75.98
2018-09-22T19:54:38.980Z,76.28
2018-09-22T19:57:10.207Z,76.48
2018-09-22T19:59:40.416Z,76.47
2018-09-22T20:02:12.626Z,76.56
2018-09-22T20:07:23.788Z,77.37
2018-09-22T20:09:53.962Z,78.22
2018-09-22T20:12:23.988Z,78.11
2018-09-22T20:14:56.904Z,78.58
2018-09-22T20:17:27.048Z,77.98
2018-09-22T20:19:59.710Z,77.08
2018-09-22T20:22:32.996Z,77.49
2018-09-22T20:25:03.358Z,76.25
2018-09-22T20:27:35.383Z,76.95
2018-09-22T20:30:05.762Z,76.04
2018-09-22T20:32:36.028Z,75.86
2018-09-22T20:35:11.420Z,76.10
2018-09-22T20:37:41.600Z,75.73
2018-09-22T20:40:12.483Z,75.53
2018-09-22T20:42:45.267Z,75.45
2018-09-22T20:45:17.088Z,76.10
2018-09-22T20:47:48.431Z,76.02
2018-09-22T20:50:20.822Z,76.88
2018-09-22T20:52:53.197Z,76.04
2018-09-22T20:55:23.303Z,75.87
2018-09-22T20:57:54.540Z,75.12
2018-09-22T21:00:26.235Z,76.13
2018-09-22T21:02:57.247Z,76.73
2018-09-22T21:05:27.714Z,77.23
2018-09-22T21:07:57.683Z,75.67
2018-09-22T21:10:27.918Z,77.30
2018-09-22T21:12:58.229Z,76.14
2018-09-22T21:15:29.319Z,76.27
2018-09-22T21:17:59.268Z,76.60
2018-09-22T21:20:29.902Z,77.66
2018-09-22T21:23:01.795Z,78.71
2018-09-22T21:25:31.985Z,78.79
2018-09-22T21:28:02.319Z,79.12
2018-09-22T21:30:32.986Z,79.78
2018-09-22T21:33:04.846Z,80.58
2018-09-22T21:35:36.232Z,81.79
2018-09-22T21:38:06.265Z,81.97
2018-09-22T21:40:36.264Z,82.42
2018-09-22T21:43:05.883Z,83.15
2018-09-22T21:45:36.094Z,84.36
2018-09-22T21:48:07.235Z,83.88
2018-09-22T21:50:37.456Z,84.38
2018-09-22T21:53:07.537Z,84.85
2018-09-22T21:55:37.737Z,84.48
2018-09-22T21:58:08.973Z,85.22
2018-09-22T22:00:41.007Z,84.72
2018-09-22T22:03:13.175Z,86.29
2018-09-22T22:05:45.497Z,87.87
2018-09-22T22:08:18.582Z,87.68
2018-09-22T22:10:48.670Z,88.38
2018-09-22T22:13:19.695Z,89.92
2018-09-22T22:15:50.118Z,89.34
2018-09-22T22:18:20.745Z,89.52
2018-09-22T22:20:51.540Z,89.94
2018-09-22T22:23:21.832Z,89.84
2018-09-22T22:25:51.917Z,89.48
2018-09-22T22:28:23.625Z,89.45
2018-09-22T22:30:55.209Z,89.97
2018-09-22T22:33:25.634Z,89.93
2018-09-22T22:35:57.610Z,90.31
2018-09-22T22:38:29.817Z,89.11
2018-09-22T22:41:00.338Z,89.77
2018-09-22T22:43:31.503Z,89.34
2018-09-22T22:46:01.577Z,90.60
2018-09-22T22:49:47.197Z,90.92
2018-09-22T22:52:17.221Z,91.01
2018-09-22T22:54:47.941Z,91.08
2018-09-22T22:57:20.191Z,90.62
2018-09-22T22:59:50.875Z,91.07
2018-09-22T23:02:22.351Z,90.81
2018-09-22T23:04:54.441Z,91.07
2018-09-22T23:07:25.400Z,91.86
2018-09-22T23:09:55.657Z,90.99
2018-09-22T23:12:26.190Z,91.49
2018-09-22T23:14:56.208Z,91.53
2018-09-22T23:17:28.188Z,91.34
2018-09-22T23:19:59.130Z,91.57
2018-09-22T23:22:30.356Z,91.87
2018-09-22T23:25:00.518Z,91.58
2018-09-22T23:27:30.830Z,91.91
2018-09-22T23:30:02.525Z,91.68
2018-09-22T23:32:32.771Z,92.17
2018-09-22T23:35:02.921Z,92.06
2018-09-22T23:37:32.732Z,91.93
2018-09-22T23:40:02.661Z,91.61
2018-09-22T23:42:32.628Z,91.51
2018-09-22T23:45:03.301Z,91.31
2018-09-22T23:47:34.564Z,91.07
2018-09-22T23:50:05.164Z,90.79
2018-09-22T23:52:36.509Z,90.65
2018-09-22T23:55:07.141Z,90.25
2018-09-22T23:57:37.375Z,90.50
